Time;durP1;ratioP1;P1;durP2;ratioP2;P2;SDS_P1;SDS_P2;PMS_P1;PMS_P2;Temp;Humidity;BMP_temperature;BMP_pressure;BME280_temperature;BME280_humidity;BME280_pressure;Samples;Min_cycle;Max_cycle;Signal;HPM_P1;HPM_P2
2024/03/09 00:01:29;;;;;;;8.40;7.13;;;9.60;99.90;;;;;;5066509;28;20820;-46
2024/03/09 00:03:57;;;;;;;7.27;5.70;;;9.60;99.90;;;;;;5068322;28;20444;-45
2024/03/09 00:06:26;;;;;;;8.13;6.60;;;9.60;99.90;;;;;;5068273;28;20473;-45
2024/03/09 00:08:55;;;;;;;9.03;7.40;;;9.60;99.90;;;;;;5062884;28;20450;-45
2024/03/09 00:11:25;;;;;;;8.10;6.40;;;9.60;99.90;;;;;;5068083;28;20466;-45
2024/03/09 00:13:55;;;;;;;8.70;7.80;;;9.60;99.90;;;;;;5065578;28;20459;-46
2024/03/09 00:16:26;;;;;;;7.93;6.30;;;9.60;99.90;;;;;;5062959;28;20458;-45
2024/03/09 00:18:57;;;;;;;8.13;7.07;;;9.60;99.90;;;;;;5060735;28;20459;-44
2024/03/09 00:21:26;;;;;;;8.30;6.27;;;9.60;99.90;;;;;;5066473;28;20941;-45
2024/03/09 00:23:56;;;;;;;8.60;6.90;;;9.60;99.90;;;;;;5065673;28;20480;-45
2024/03/09 00:26:25;;;;;;;9.93;7.60;;;9.60;99.90;;;;;;5068019;28;20454;-45
2024/03/09 00:28:56;;;;;;;8.70;6.10;;;9.60;99.90;;;;;;5057539;28;21018;-45
2024/03/09 00:31:28;;;;;;;7.23;5.77;;;9.60;99.90;;;;;;5068604;28;20508;-45
2024/03/09 00:33:57;;;;;;;7.27;5.73;;;9.60;99.90;;;;;;5064219;28;20475;-45
2024/03/09 00:36:25;;;;;;;7.57;5.90;;;9.50;99.90;;;;;;5068672;28;20452;-45
2024/03/09 00:38:56;;;;;;;7.87;6.67;;;9.60;99.90;;;;;;5072150;28;20431;-45
2024/03/09 00:41:25;;;;;;;6.90;6.20;;;9.60;99.90;;;;;;5065231;28;20951;-45
2024/03/09 00:43:54;;;;;;;7.20;5.93;;;9.60;99.90;;;;;;5068216;28;20430;-44
2024/03/09 00:46:28;;;;;;;7.30;6.13;;;9.60;99.90;;;;;;5071945;28;20449;-44
2024/03/09 00:48:56;;;;;;;7.13;6.10;;;9.60;99.90;;;;;;5068768;28;20450;-45
2024/03/09 00:51:25;;;;;;;7.70;6.60;;;9.60;99.90;;;;;;5069789;28;20438;-45
2024/03/09 00:53:54;;;;;;;7.77;6.00;;;9.60;99.90;;;;;;5069893;28;20462;-45
2024/03/09 00:56:24;;;;;;;9.93;6.70;;;9.50;99.90;;;;;;5071938;28;20501;-44
2024/03/09 00:58:56;;;;;;;6.60;5.60;;;9.50;99.90;;;;;;5066469;28;20962;-45
2024/03/09 01:01:29;;;;;;;7.30;6.60;;;9.50;99.90;;;;;;5071629;28;20422;-46
2024/03/09 01:03:57;;;;;;;8.93;7.47;;;9.50;99.90;;;;;;5068189;28;20474;-45
2024/03/09 01:06:27;;;;;;;7.80;6.90;;;9.50;99.90;;;;;;5069905;28;20914;-45
2024/03/09 01:08:58;;;;;;;9.00;6.60;;;9.50;99.90;;;;;;5061701;28;20545;-45
2024/03/09 01:11:26;;;;;;;7.80;6.20;;;9.50;99.90;;;;;;5069386;28;20437;-45
2024/03/09 01:13:57;;;;;;;7.03;5.87;;;9.50;99.90;;;;;;5064126;28;20455;-45
2024/03/09 01:16:29;;;;;;;7.00;6.07;;;9.50;99.90;;;;;;5052038;28;20549;-45
2024/03/09 01:18:58;;;;;;;9.00;5.73;;;9.40;99.90;;;;;;5066478;28;20438;-45
2024/03/09 01:21:28;;;;;;;7.20;6.03;;;9.50;99.90;;;;;;5068782;28;20434;-45
2024/03/09 01:23:57;;;;;;;8.07;6.47;;;9.50;99.90;;;;;;5070143;28;20470;-44
2024/03/09 01:26:26;;;;;;;11.27;8.30;;;9.50;99.90;;;;;;5069645;28;20515;-45
2024/03/09 01:28:56;;;;;;;10.97;9.07;;;9.40;99.90;;;;;;5061608;28;20447;-44
2024/03/09 01:31:28;;;;;;;10.13;7.40;;;9.40;99.90;;;;;;5065703;28;20438;-45
2024/03/09 01:33:59;;;;;;;9.17;7.30;;;9.40;99.90;;;;;;5066943;28;20562;-45
2024/03/09 01:36:27;;;;;;;9.03;7.63;;;9.40;99.90;;;;;;5071446;28;20442;-44
2024/03/09 01:38:57;;;;;;;8.27;6.67;;;9.40;99.90;;;;;;5070710;28;20438;-44
2024/03/09 01:41:26;;;;;;;8.27;6.90;;;9.40;99.90;;;;;;5069313;28;20430;-46
2024/03/09 01:43:56;;;;;;;8.60;7.00;;;9.30;99.90;;;;;;5068319;28;20508;-45
2024/03/09 01:46:25;;;;;;;8.53;6.60;;;9.30;99.90;;;;;;5069451;28;20453;-45
2024/03/09 01:48:54;;;;;;;9.43;7.50;;;9.30;99.90;;;;;;5064589;28;20573;-44
2024/03/09 01:51:27;;;;;;;8.53;6.53;;;9.30;99.90;;;;;;5071189;28;20426;-45
2024/03/09 01:53:57;;;;;;;8.53;6.97;;;9.30;99.90;;;;;;5070845;28;20470;-45
2024/03/09 01:56:28;;;;;;;9.37;7.50;;;9.30;99.90;;;;;;5054644;28;20454;-44
2024/03/09 01:58:56;;;;;;;8.37;7.57;;;9.30;99.90;;;;;;5061017;28;21018;-45
2024/03/09 02:01:26;;;;;;;7.87;6.93;;;9.30;99.90;;;;;;5070768;28;20465;-45
2024/03/09 02:03:57;;;;;;;9.33;7.53;;;9.30;99.90;;;;;;5067688;28;20454;-44
2024/03/09 02:06:29;;;;;;;9.27;6.23;;;9.30;99.90;;;;;;5068904;28;20450;-45
2024/03/09 02:08:57;;;;;;;8.43;7.30;;;9.30;99.90;;;;;;5066592;28;20421;-44
2024/03/09 02:11:30;;;;;;;8.63;6.90;;;9.30;99.90;;;;;;5070408;28;20464;-45
2024/03/09 02:13:58;;;;;;;9.73;7.73;;;9.30;99.90;;;;;;5061632;28;20474;-44
2024/03/09 02:16:27;;;;;;;7.50;6.73;;;9.30;99.90;;;;;;5068715;28;20456;-44
2024/03/09 02:18:55;;;;;;;8.30;6.23;;;9.30;99.90;;;;;;5066244;28;20540;-44
2024/03/09 02:21:23;;;;;;;9.10;7.23;;;9.30;99.90;;;;;;5067576;28;20916;-44
2024/03/09 02:24:03;;;;;;;6.83;5.70;;;9.30;99.90;;;;;;5066200;28;20882;-45
2024/03/09 02:26:36;;;;;;;10.53;7.40;;;9.30;99.90;;;;;;5068457;28;21031;-45
2024/03/09 02:29:08;;;;;;;6.57;5.80;;;9.30;99.90;;;;;;5058125;28;20438;-45
2024/03/09 02:31:37;;;;;;;7.60;5.30;;;9.30;99.90;;;;;;5069213;28;20434;-46
2024/03/09 02:34:07;;;;;;;8.70;6.27;;;9.30;99.90;;;;;;5062627;28;20519;-45
2024/03/09 02:36:38;;;;;;;8.67;6.53;;;9.30;99.90;;;;;;5067631;28;20817;-44
2024/03/09 02:39:09;;;;;;;6.80;5.50;;;9.30;99.90;;;;;;5067838;28;20854;-45
2024/03/09 02:41:41;;;;;;;6.77;6.07;;;9.30;99.90;;;;;;5066913;28;20441;-45
2024/03/09 02:44:12;;;;;;;7.13;5.80;;;9.30;99.90;;;;;;5062831;28;20746;-45
2024/03/09 02:46:41;;;;;;;8.20;6.10;;;9.30;99.90;;;;;;5065524;28;20597;-45
2024/03/09 02:49:12;;;;;;;7.43;5.80;;;9.30;99.90;;;;;;5062492;28;20549;-45
2024/03/09 02:51:42;;;;;;;7.00;6.17;;;9.30;99.90;;;;;;5061100;28;20440;-44
2024/03/09 02:54:11;;;;;;;7.40;6.33;;;9.30;99.90;;;;;;5062979;28;20507;-45
2024/03/09 02:56:41;;;;;;;5.90;5.10;;;9.30;99.90;;;;;;5067981;28;20887;-45
2024/03/09 02:59:12;;;;;;;5.67;5.07;;;9.30;99.90;;;;;;5063256;28;20422;-46
2024/03/09 03:01:42;;;;;;;7.50;6.30;;;9.30;99.90;;;;;;5067400;28;20496;-44
2024/03/09 03:04:11;;;;;;;7.00;6.30;;;9.30;99.90;;;;;;5061556;28;20944;-44
2024/03/09 03:06:43;;;;;;;6.10;5.33;;;9.30;99.90;;;;;;5067655;28;20441;-44
2024/03/09 03:09:15;;;;;;;6.80;5.70;;;9.30;99.90;;;;;;5063206;28;20492;-44
2024/03/09 03:11:46;;;;;;;7.00;5.23;;;9.30;99.90;;;;;;5062073;28;20443;-45
2024/03/09 03:14:15;;;;;;;8.43;6.87;;;9.30;99.90;;;;;;5060755;28;20445;-44
2024/03/09 03:16:43;;;;;;;6.30;5.40;;;9.30;99.90;;;;;;5064142;28;20839;-45
2024/03/09 03:19:12;;;;;;;7.80;6.43;;;9.30;99.90;;;;;;5067038;28;20441;-45
2024/03/09 03:21:42;;;;;;;7.23;6.43;;;9.30;99.90;;;;;;5064229;28;20468;-46
2024/03/09 03:24:13;;;;;;;9.90;7.67;;;9.30;99.90;;;;;;5060601;28;20436;-45
2024/03/09 03:26:42;;;;;;;8.87;6.87;;;9.30;99.90;;;;;;5068127;28;20449;-45
2024/03/09 03:29:12;;;;;;;8.73;7.07;;;9.20;99.90;;;;;;5068575;28;20437;-44
2024/03/09 03:31:41;;;;;;;8.77;7.07;;;9.20;99.90;;;;;;5064400;28;20438;-45
2024/03/09 03:34:12;;;;;;;10.77;5.87;;;9.20;99.90;;;;;;5061088;28;20529;-45
2024/03/09 03:36:42;;;;;;;7.73;6.37;;;9.20;99.90;;;;;;5067813;28;20825;-45
2024/03/09 03:39:12;;;;;;;9.90;7.20;;;9.20;99.90;;;;;;5048118;28;20842;-45
2024/03/09 03:41:43;;;;;;;8.50;7.10;;;9.20;99.90;;;;;;5068941;28;20509;-45
2024/03/09 03:44:14;;;;;;;5.97;5.40;;;9.20;99.90;;;;;;5068889;28;20473;-45
2024/03/09 03:46:42;;;;;;;7.67;6.60;;;9.20;99.90;;;;;;5065600;28;20422;-44
2024/03/09 03:49:12;;;;;;;7.70;6.23;;;9.10;99.90;;;;;;5060715;28;20438;-45
2024/03/09 03:51:43;;;;;;;7.47;5.73;;;9.20;99.90;;;;;;5066839;28;20426;-45
2024/03/09 03:54:12;;;;;;;9.10;7.50;;;9.20;99.90;;;;;;5067909;28;20446;-45
2024/03/09 03:56:42;;;;;;;7.77;5.60;;;9.10;99.90;;;;;;5063254;28;20531;-45
2024/03/09 03:59:13;;;;;;;6.00;5.40;;;9.10;99.90;;;;;;5068088;28;20898;-46
2024/03/09 04:01:43;;;;;;;8.37;6.70;;;9.20;99.90;;;;;;5066757;28;20797;-45
2024/03/09 04:04:11;;;;;;;6.00;5.10;;;9.20;99.90;;;;;;5065228;28;20527;-45
2024/03/09 04:06:44;;;;;;;7.60;6.40;;;9.20;99.90;;;;;;5066700;28;20427;-44
2024/03/09 04:09:14;;;;;;;7.70;5.80;;;9.20;99.90;;;;;;5035755;28;21065;-45
2024/03/09 04:11:43;;;;;;;6.13;5.53;;;9.20;99.90;;;;;;5066525;28;20645;-45
2024/03/09 04:14:13;;;;;;;8.00;5.83;;;9.20;99.90;;;;;;5065852;28;20426;-44
2024/03/09 04:16:42;;;;;;;7.40;5.70;;;9.20;99.90;;;;;;5070984;28;20461;-45
2024/03/09 04:19:11;;;;;;;6.40;5.60;;;9.20;99.90;;;;;;5067820;28;20951;-44
2024/03/09 04:21:40;;;;;;;9.10;6.30;;;9.20;99.90;;;;;;5069943;28;20441;-44
2024/03/09 04:24:09;;;;;;;7.67;6.40;;;9.20;99.90;;;;;;5064559;28;20468;-44
2024/03/09 04:26:42;;;;;;;6.90;5.53;;;9.10;99.90;;;;;;5072534;28;20438;-44
2024/03/09 04:29:14;;;;;;;8.30;6.23;;;9.10;99.90;;;;;;5060250;28;20454;-45
2024/03/09 04:31:44;;;;;;;7.43;6.57;;;9.10;99.90;;;;;;5071123;28;20480;-44
2024/03/09 04:34:12;;;;;;;6.57;5.90;;;9.10;99.90;;;;;;5064945;28;20439;-45
2024/03/09 04:36:45;;;;;;;6.53;4.70;;;9.10;99.90;;;;;;5069774;28;20453;-45
2024/03/09 04:39:18;;;;;;;6.10;5.13;;;9.10;99.90;;;;;;5067462;28;20422;-45
2024/03/09 04:41:47;;;;;;;6.57;5.03;;;9.10;99.90;;;;;;5071669;28;20435;-45
2024/03/09 04:44:16;;;;;;;7.87;5.67;;;9.10;99.90;;;;;;5066371;28;20437;-45
2024/03/09 04:46:55;;;;;;;7.93;6.13;;;9.10;99.90;;;;;;5070962;28;20990;-45
2024/03/09 04:49:25;;;;;;;6.90;6.20;;;9.10;99.90;;;;;;5067447;28;20859;-44
2024/03/09 04:51:56;;;;;;;5.70;4.90;;;9.10;99.90;;;;;;5070301;28;20485;-44
2024/03/09 04:54:26;;;;;;;6.60;5.90;;;9.10;99.90;;;;;;5063531;28;20982;-44
2024/03/09 04:56:57;;;;;;;9.97;7.07;;;9.10;99.90;;;;;;5066199;28;20528;-45
2024/03/09 04:59:28;;;;;;;5.30;4.77;;;9.10;99.90;;;;;;5071260;28;20509;-44
2024/03/09 05:01:57;;;;;;;5.30;4.63;;;9.10;99.90;;;;;;5068364;28;20444;-45
2024/03/09 05:04:26;;;;;;;8.33;6.60;;;9.10;99.90;;;;;;5070716;28;20996;-44
2024/03/09 05:06:56;;;;;;;6.73;5.53;;;9.10;99.90;;;;;;5063423;28;20466;-44
2024/03/09 05:09:27;;;;;;;6.90;5.10;;;9.10;99.90;;;;;;5070192;28;20430;-45
2024/03/09 05:11:54;;;;;;;5.23;4.60;;;9.10;99.90;;;;;;5065965;28;20533;-44
2024/03/09 05:14:25;;;;;;;7.47;5.43;;;9.10;99.90;;;;;;5051155;28;20499;-45
2024/03/09 05:16:55;;;;;;;7.90;6.00;;;9.10;99.90;;;;;;5067985;28;20469;-45
2024/03/09 05:19:26;;;;;;;9.17;6.50;;;9.10;99.90;;;;;;5069105;28;20781;-45
2024/03/09 05:21:57;;;;;;;7.60;6.47;;;9.10;99.90;;;;;;5068683;28;20497;-45
2024/03/09 05:24:26;;;;;;;8.00;6.20;;;9.10;99.90;;;;;;5067166;28;20441;-45
2024/03/09 05:26:54;;;;;;;7.77;6.27;;;9.00;99.90;;;;;;5069455;28;20839;-44
2024/03/09 05:29:23;;;;;;;6.37;5.43;;;9.00;99.90;;;;;;5070949;28;20438;-45
2024/03/09 05:31:52;;;;;;;6.07;5.47;;;9.00;99.90;;;;;;5068013;28;20446;-44
2024/03/09 05:34:22;;;;;;;7.83;5.27;;;9.00;99.90;;;;;;5069069;28;20445;-44
2024/03/09 05:36:55;;;;;;;5.80;4.87;;;9.00;99.90;;;;;;5069008;28;20549;-44
2024/03/09 05:39:24;;;;;;;7.60;6.37;;;9.00;99.90;;;;;;5070478;28;20445;-45
2024/03/09 05:41:55;;;;;;;7.37;5.73;;;9.00;99.90;;;;;;5069518;28;20871;-44
2024/03/09 05:44:24;;;;;;;7.57;5.53;;;9.00;99.90;;;;;;5065450;28;20443;-45
2024/03/09 05:46:56;;;;;;;7.60;5.37;;;9.00;99.90;;;;;;5067591;28;20482;-45
2024/03/09 05:49:27;;;;;;;5.03;4.37;;;9.00;99.90;;;;;;5052646;28;20508;-44
2024/03/09 05:51:56;;;;;;;6.60;5.90;;;9.00;99.90;;;;;;5070685;28;20471;-44
2024/03/09 05:54:25;;;;;;;7.27;6.00;;;9.00;99.90;;;;;;5070204;28;20438;-44
2024/03/09 05:56:54;;;;;;;6.60;5.27;;;9.00;99.90;;;;;;5069698;28;20471;-44
2024/03/09 05:59:28;;;;;;;6.10;5.30;;;9.00;99.90;;;;;;5065102;28;20446;-44
2024/03/09 06:01:56;;;;;;;8.63;5.93;;;9.00;99.90;;;;;;5066345;28;20427;-44
2024/03/09 06:04:28;;;;;;;8.87;6.70;;;9.00;99.90;;;;;;5069649;28;20442;-44
2024/03/09 06:06:56;;;;;;;7.37;6.03;;;9.00;99.90;;;;;;5067765;28;20442;-45
2024/03/09 06:09:25;;;;;;;6.63;6.00;;;9.00;99.90;;;;;;5070492;28;20488;-44
2024/03/09 06:11:53;;;;;;;6.00;5.30;;;8.90;99.90;;;;;;5050057;28;20438;-45
2024/03/09 06:14:23;;;;;;;6.53;5.90;;;8.90;99.90;;;;;;5061673;28;20450;-45
2024/03/09 06:16:53;;;;;;;7.70;6.13;;;8.90;99.90;;;;;;5063263;28;20458;-44
2024/03/09 06:19:24;;;;;;;8.23;6.27;;;8.90;99.90;;;;;;5064672;28;20478;-45
2024/03/09 06:21:54;;;;;;;6.27;5.00;;;8.90;99.90;;;;;;5065834;28;20458;-45
2024/03/09 06:24:23;;;;;;;5.83;4.70;;;8.90;99.90;;;;;;5070702;28;20825;-44
2024/03/09 06:26:55;;;;;;;6.60;5.60;;;8.90;99.90;;;;;;5069261;28;20451;-44
2024/03/09 06:29:24;;;;;;;7.90;6.47;;;8.90;99.90;;;;;;5066161;28;21100;-45
2024/03/09 06:31:55;;;;;;;6.20;5.70;;;8.90;99.90;;;;;;5067802;28;20443;-45
2024/03/09 06:34:23;;;;;;;6.97;5.40;;;8.90;99.90;;;;;;5068760;28;20446;-45
2024/03/09 06:36:56;;;;;;;5.90;5.20;;;8.90;99.90;;;;;;5050055;28;20516;-46
2024/03/09 06:39:25;;;;;;;9.13;6.10;;;8.90;99.90;;;;;;5064232;28;20518;-44
2024/03/09 06:41:54;;;;;;;7.50;6.70;;;8.90;99.90;;;;;;5067928;28;20503;-45
2024/03/09 06:44:25;;;;;;;8.27;5.80;;;8.90;99.90;;;;;;5069685;28;20434;-45
2024/03/09 06:46:54;;;;;;;6.70;5.47;;;8.90;99.90;;;;;;5068527;28;20520;-45
2024/03/09 06:49:25;;;;;;;8.20;7.13;;;8.90;99.90;;;;;;5068532;28;20599;-45
2024/03/09 06:51:57;;;;;;;7.17;6.00;;;8.90;99.90;;;;;;5068805;28;20448;-44
2024/03/09 06:54:29;;;;;;;9.97;6.63;;;8.90;99.90;;;;;;5068584;28;21022;-45
2024/03/09 06:56:57;;;;;;;6.80;5.80;;;8.90;99.90;;;;;;5067664;28;21026;-45
2024/03/09 06:59:26;;;;;;;6.00;4.87;;;8.90;99.90;;;;;;5062835;28;20433;-45
2024/03/09 07:01:59;;;;;;;5.53;5.00;;;8.90;99.90;;;;;;5068237;28;20434;-45
2024/03/09 07:04:28;;;;;;;6.70;5.00;;;8.90;99.90;;;;;;5066132;28;20442;-44
2024/03/09 07:06:58;;;;;;;8.20;5.37;;;8.90;99.90;;;;;;5067042;28;20453;-45
2024/03/09 07:09:27;;;;;;;6.20;5.30;;;8.80;99.90;;;;;;5069163;28;20944;-45
2024/03/09 07:11:56;;;;;;;8.27;6.17;;;8.90;99.90;;;;;;5045222;28;21202;-44
2024/03/09 07:14:27;;;;;;;7.40;6.00;;;8.90;99.90;;;;;;5064828;28;20987;-44
2024/03/09 07:16:55;;;;;;;9.17;6.03;;;8.90;99.90;;;;;;5063383;28;20496;-45
2024/03/09 07:19:24;;;;;;;7.47;5.47;;;8.90;99.90;;;;;;5058445;28;20441;-44
2024/03/09 07:21:53;;;;;;;7.10;6.13;;;8.90;99.90;;;;;;5058902;28;20456;-45
2024/03/09 07:24:26;;;;;;;9.40;6.77;;;8.80;99.90;;;;;;5061950;28;20477;-44
2024/03/09 07:26:55;;;;;;;7.00;5.60;;;8.80;99.90;;;;;;5066593;28;20442;-46
2024/03/09 07:29:29;;;;;;;6.83;6.13;;;8.80;99.90;;;;;;5070008;28;20990;-44
2024/03/09 07:31:57;;;;;;;7.47;5.47;;;8.80;99.90;;;;;;5070864;28;20496;-45
2024/03/09 07:34:28;;;;;;;7.70;5.87;;;8.80;99.90;;;;;;5066201;28;20438;-44
2024/03/09 07:36:57;;;;;;;8.20;6.40;;;8.80;99.90;;;;;;5069708;28;20465;-45
2024/03/09 07:39:30;;;;;;;8.53;6.60;;;8.80;99.90;;;;;;5069091;28;20430;-45
2024/03/09 07:41:58;;;;;;;5.50;4.60;;;8.80;99.90;;;;;;5069128;28;20798;-45
2024/03/09 07:44:27;;;;;;;8.80;7.10;;;8.80;99.90;;;;;;5064162;28;20442;-45
2024/03/09 07:46:55;;;;;;;7.00;5.60;;;8.80;99.90;;;;;;5067143;28;20434;-45
2024/03/09 07:49:23;;;;;;;7.60;5.80;;;8.80;99.90;;;;;;5065702;28;20448;-44
2024/03/09 07:51:52;;;;;;;8.83;7.20;;;8.80;99.90;;;;;;5069289;28;20455;-44
2024/03/09 07:54:22;;;;;;;6.63;5.93;;;8.80;99.90;;;;;;5068391;28;20435;-45
2024/03/09 07:56:52;;;;;;;7.73;6.00;;;8.80;99.90;;;;;;5064080;28;20434;-45
2024/03/09 07:59:23;;;;;;;7.97;6.20;;;8.90;99.90;;;;;;5065527;28;20446;-45
2024/03/09 08:01:55;;;;;;;6.77;5.57;;;8.90;99.90;;;;;;5065178;28;20446;-45
2024/03/09 08:04:24;;;;;;;7.63;6.40;;;8.90;99.90;;;;;;5067358;28;20803;-44
2024/03/09 08:06:54;;;;;;;6.63;5.20;;;8.90;99.90;;;;;;5063725;28;20445;-45
2024/03/09 08:09:23;;;;;;;7.97;5.97;;;8.90;99.90;;;;;;5061246;28;20500;-45
2024/03/09 08:11:55;;;;;;;6.97;6.07;;;8.90;99.90;;;;;;5067247;28;21020;-45
2024/03/09 08:14:27;;;;;;;7.03;5.10;;;8.90;99.90;;;;;;5068245;28;20457;-45
2024/03/09 08:16:55;;;;;;;6.30;5.70;;;8.90;99.90;;;;;;5060450;28;21016;-45
2024/03/09 08:19:24;;;;;;;7.87;5.90;;;8.90;99.90;;;;;;5062959;28;20931;-45
2024/03/09 08:21:56;;;;;;;7.97;6.13;;;9.00;99.90;;;;;;5064323;28;20539;-45
2024/03/09 08:24:25;;;;;;;6.00;5.10;;;9.00;99.90;;;;;;5062537;28;20472;-45
2024/03/09 08:26:59;;;;;;;7.20;5.90;;;9.00;99.90;;;;;;5063882;28;20492;-45
2024/03/09 08:29:29;;;;;;;7.63;5.50;;;9.00;99.90;;;;;;5066526;28;20449;-45
2024/03/09 08:31:57;;;;;;;6.13;5.00;;;9.00;99.90;;;;;;5067073;28;20449;-45
2024/03/09 08:34:26;;;;;;;6.60;5.50;;;9.00;99.90;;;;;;5065872;28;20441;-44
2024/03/09 08:36:56;;;;;;;7.27;5.83;;;9.00;99.90;;;;;;5060940;28;20472;-45
2024/03/09 08:39:26;;;;;;;7.23;5.53;;;9.00;99.90;;;;;;5067878;28;20465;-45
2024/03/09 08:41:55;;;;;;;6.90;5.53;;;9.00;99.90;;;;;;5063547;28;20470;-45
2024/03/09 08:44:26;;;;;;;5.67;4.63;;;9.00;99.90;;;;;;5061447;28;20434;-44
2024/03/09 08:46:56;;;;;;;8.10;5.70;;;9.00;99.90;;;;;;5067619;28;20422;-45
2024/03/09 08:49:26;;;;;;;7.43;4.83;;;9.00;99.90;;;;;;5062725;28;20963;-44
2024/03/09 08:51:55;;;;;;;7.03;5.73;;;9.10;99.90;;;;;;5066648;28;20472;-44
2024/03/09 08:54:27;;;;;;;8.40;6.23;;;9.10;99.90;;;;;;5063355;28;20984;-44
2024/03/09 08:56:55;;;;;;;8.67;7.70;;;9.10;99.90;;;;;;5057662;28;20442;-45
2024/03/09 08:59:25;;;;;;;6.90;5.83;;;9.10;99.90;;;;;;5062949;28;20569;-45
2024/03/09 09:01:56;;;;;;;8.80;5.97;;;9.10;99.90;;;;;;5066847;28;20789;-45
2024/03/09 09:04:25;;;;;;;8.73;6.43;;;9.10;99.90;;;;;;5060465;28;20464;-45
2024/03/09 09:06:53;;;;;;;7.30;6.40;;;9.10;99.90;;;;;;5072699;28;20483;-44
2024/03/09 09:09:25;;;;;;;6.80;5.83;;;9.00;99.90;;;;;;5070689;28;20433;-45
2024/03/09 09:11:55;;;;;;;7.37;6.20;;;9.10;99.90;;;;;;5068642;28;20430;-44
2024/03/09 09:14:28;;;;;;;6.87;6.13;;;9.10;99.90;;;;;;5062720;28;20496;-45
2024/03/09 09:16:56;;;;;;;7.60;5.53;;;9.10;99.90;;;;;;5066311;28;20947;-46
2024/03/09 09:19:25;;;;;;;6.83;6.17;;;9.10;99.90;;;;;;5064746;28;20466;-45
2024/03/09 09:21:56;;;;;;;7.87;5.70;;;9.10;99.90;;;;;;5066872;28;20834;-45
2024/03/09 09:24:25;;;;;;;6.90;5.50;;;9.10;99.90;;;;;;5060486;28;20445;-45
2024/03/09 09:26:58;;;;;;;18.63;12.60;;;9.10;99.90;;;;;;5060922;28;20441;-44
2024/03/09 09:29:28;;;;;;;16.93;13.13;;;9.10;99.80;;;;;;5044652;28;20523;-44
2024/03/09 09:31:56;;;;;;;16.80;12.90;;;9.10;98.40;;;;;;5062377;28;20478;-44
2024/03/09 09:34:26;;;;;;;15.63;11.70;;;9.10;97.80;;;;;;5068880;28;20446;-44
2024/03/09 09:36:55;;;;;;;14.73;11.63;;;9.00;97.50;;;;;;5069390;28;20180;-44
2024/03/09 09:39:29;;;;;;;18.00;12.80;;;9.00;98.40;;;;;;5067529;28;20462;-45
2024/03/09 09:41:58;;;;;;;15.50;11.95;;;9.00;98.80;;;;;;5069016;28;20461;-46
2024/03/09 09:44:28;;;;;;;17.57;11.10;;;9.10;99.80;;;;;;5063060;28;20226;-45
2024/03/09 09:46:58;;;;;;;15.80;10.80;;;9.10;99.90;;;;;;5069591;28;20982;-44
2024/03/09 09:49:27;;;;;;;16.33;11.43;;;9.10;99.90;;;;;;5064959;28;20434;-45
2024/03/09 09:51:57;;;;;;;12.33;10.10;;;9.10;99.90;;;;;;5066995;28;20515;-44
2024/03/09 09:54:27;;;;;;;15.73;11.67;;;9.10;99.90;;;;;;5044284;28;20512;-44
2024/03/09 09:56:57;;;;;;;13.70;11.33;;;9.10;99.90;;;;;;5062951;28;20451;-44
2024/03/09 09:59:25;;;;;;;13.60;9.97;;;9.10;99.90;;;;;;5068404;28;20504;-44
2024/03/09 10:01:57;;;;;;;17.60;10.30;;;9.20;99.90;;;;;;5047551;28;20442;-44
2024/03/09 10:04:26;;;;;;;12.53;9.40;;;9.20;99.90;;;;;;5065455;28;20517;-45
2024/03/09 10:07:07;;;;;;;13.10;8.93;;;9.20;99.90;;;;;;5065265;28;20438;-44
2024/03/09 10:09:36;;;;;;;12.50;9.73;;;9.20;99.90;;;;;;5069326;28;20959;-44
2024/03/09 10:12:19;;;;;;;13.63;10.30;;;9.20;99.90;;;;;;5064996;28;20450;-46
2024/03/09 10:14:47;;;;;;;14.07;9.90;;;9.30;99.90;;;;;;5064123;28;20975;-44
2024/03/09 10:17:19;;;;;;;14.67;9.80;;;9.30;99.90;;;;;;5067611;28;21020;-44
2024/03/09 10:19:49;;;;;;;11.30;9.03;;;9.30;99.90;;;;;;5065772;28;20473;-44
2024/03/09 10:22:21;;;;;;;12.23;9.30;;;9.30;99.90;;;;;;5062229;28;20838;-46
2024/03/09 10:24:56;;;;;;;11.13;8.67;;;9.30;99.90;;;;;;5064140;28;20455;-45
2024/03/09 10:27:28;;;;;;;12.00;9.00;;;9.30;99.90;;;;;;5065904;28;20451;-44
2024/03/09 10:30:10;;;;;;;11.53;8.60;;;9.30;99.90;;;;;;5066034;28;20430;-44
2024/03/09 10:32:43;;;;;;;12.30;9.40;;;9.30;99.90;;;;;;5069185;28;20442;-44
2024/03/09 10:35:14;;;;;;;9.77;8.07;;;9.30;99.90;;;;;;5062161;28;20466;-44
2024/03/09 10:37:43;;;;;;;12.17;9.30;;;9.30;99.90;;;;;;5065518;28;21001;-45
2024/03/09 10:40:13;;;;;;;10.93;8.40;;;9.30;99.90;;;;;;5061298;28;20473;-44
2024/03/09 10:42:45;;;;;;;11.43;9.60;;;9.30;99.90;;;;;;5057877;28;20504;-45
2024/03/09 10:45:17;;;;;;;10.83;8.63;;;9.30;99.90;;;;;;5070311;28;20480;-45
2024/03/09 10:47:50;;;;;;;13.40;9.17;;;9.30;99.90;;;;;;5050775;28;20444;-44
2024/03/09 10:50:24;;;;;;;11.57;8.13;;;9.40;99.90;;;;;;5057621;28;20935;-44
2024/03/09 10:53:07;;;;;;;14.60;10.87;;;9.50;99.90;;;;;;5063508;28;20576;-45
2024/03/09 10:55:44;;;;;;;14.03;10.20;;;9.60;99.90;;;;;;5067939;28;20542;-44
2024/03/09 10:58:16;;;;;;;14.20;11.23;;;9.70;99.90;;;;;;5063408;28;20483;-47
2024/03/09 11:00:49;;;;;;;16.23;10.63;;;9.70;99.90;;;;;;5064203;28;21113;-46
2024/03/09 11:03:23;;;;;;;18.73;11.13;;;9.70;99.90;;;;;;5061276;28;20437;-45
2024/03/09 11:05:57;;;;;;;18.90;11.40;;;9.70;99.70;;;;;;5067066;28;20466;-47
2024/03/09 11:08:27;;;;;;;17.73;11.30;;;9.60;99.90;;;;;;5063111;28;20936;-44
2024/03/09 11:10:57;;;;;;;14.10;10.50;;;9.60;99.90;;;;;;5067464;28;20442;-45
2024/03/09 11:13:26;;;;;;;18.13;10.57;;;9.50;99.90;;;;;;5061565;28;20484;-45
2024/03/09 11:15:55;;;;;;;15.70;9.50;;;9.50;99.90;;;;;;5062098;28;20461;-46
2024/03/09 11:18:27;;;;;;;14.30;9.97;;;9.50;99.90;;;;;;5063761;28;20441;-45
2024/03/09 11:20:59;;;;;;;18.60;9.47;;;9.50;99.90;;;;;;5059315;28;20477;-45
2024/03/09 11:23:32;;;;;;;13.63;10.47;;;9.40;99.90;;;;;;5065203;28;20456;-45
2024/03/09 11:26:04;;;;;;;14.30;10.17;;;9.40;99.90;;;;;;5059021;28;20466;-46
2024/03/09 11:28:51;;;;;;;16.37;9.63;;;9.40;99.90;;;;;;5066246;28;20450;-46
2024/03/09 11:31:28;;;;;;;17.53;9.23;;;9.40;99.90;;;;;;5050582;28;20480;-47
2024/03/09 11:34:12;;;;;;;17.87;11.23;;;9.30;99.90;;;;;;5060756;28;20797;-46
2024/03/09 11:36:50;;;;;;;14.20;10.53;;;9.50;99.90;;;;;;5064666;28;20446;-48
2024/03/09 11:39:28;;;;;;;13.10;10.57;;;9.50;99.90;;;;;;5044997;28;20515;-47
2024/03/09 11:42:00;;;;;;;15.63;11.00;;;9.60;99.90;;;;;;5066670;28;20532;-47
2024/03/09 11:44:33;;;;;;;14.30;9.40;;;9.50;99.90;;;;;;5067098;28;20952;-48
2024/03/09 11:47:03;;;;;;;16.50;10.50;;;9.50;99.90;;;;;;5064219;28;20965;-47
2024/03/09 11:49:37;;;;;;;14.17;9.40;;;9.50;99.90;;;;;;5064527;28;20771;-47
2024/03/09 11:52:09;;;;;;;13.90;10.20;;;9.50;99.90;;;;;;5069068;28;20427;-46
2024/03/09 11:54:39;;;;;;;13.03;10.33;;;9.50;99.90;;;;;;5060836;28;20461;-50
2024/03/09 11:57:11;;;;;;;14.20;9.90;;;9.40;99.90;;;;;;5062657;28;21218;-47
2024/03/09 11:59:42;;;;;;;17.97;10.50;;;9.40;99.90;;;;;;5067949;28;20487;-46
2024/03/09 12:02:13;;;;;;;11.70;9.00;;;9.40;99.90;;;;;;5060567;28;20472;-48
2024/03/09 12:04:43;;;;;;;12.07;9.40;;;9.40;99.90;;;;;;5056450;28;21165;-47
2024/03/09 12:07:12;;;;;;;11.77;8.50;;;9.40;99.90;;;;;;5062361;28;20448;-48
2024/03/09 12:09:44;;;;;;;12.80;9.13;;;9.40;99.90;;;;;;5067451;28;20980;-51
2024/03/09 12:12:15;;;;;;;12.87;9.50;;;9.40;99.90;;;;;;5063042;28;20453;-45
2024/03/09 12:14:46;;;;;;;15.47;9.27;;;9.40;99.90;;;;;;5063196;28;20470;-47
2024/03/09 12:17:15;;;;;;;13.50;8.50;;;9.40;99.90;;;;;;5061288;28;20493;-47
2024/03/09 12:19:47;;;;;;;11.40;9.30;;;9.40;99.90;;;;;;5054399;28;20964;-47
2024/03/09 12:22:17;;;;;;;14.90;10.13;;;9.40;99.90;;;;;;5060252;28;20435;-47
2024/03/09 12:24:46;;;;;;;9.60;7.77;;;9.40;99.90;;;;;;5061768;28;20998;-45
2024/03/09 12:27:42;;;;;;;10.93;8.70;;;9.40;99.90;;;;;;5063368;28;21002;-46
2024/03/09 12:30:15;;;;;;;11.13;8.97;;;9.40;99.90;;;;;;5027505;28;20633;-47
2024/03/09 12:32:43;;;;;;;14.07;9.57;;;9.50;99.90;;;;;;5034617;28;20454;-51
2024/03/09 12:35:13;;;;;;;10.87;8.13;;;9.50;99.90;;;;;;5061619;28;20473;-46
2024/03/09 12:40:38;;;;;;;11.30;8.93;;;9.50;99.90;;;;;;5131447;23;20481;-46
2024/03/09 12:43:23;;;;;;;12.00;9.40;;;9.60;99.90;;;;;;4992070;28;20457;-49
2024/03/09 12:45:52;;;;;;;10.70;8.53;;;9.60;99.90;;;;;;4980103;28;20458;-49
2024/03/09 12:48:22;;;;;;;15.80;8.90;;;9.50;99.90;;;;;;4952785;28;20482;-50
2024/03/09 12:50:55;;;;;;;10.73;9.63;;;9.50;99.90;;;;;;4971038;28;20871;-48
2024/03/09 12:53:24;;;;;;;18.37;12.40;;;9.50;99.90;;;;;;4975653;28;20466;-46
2024/03/09 12:55:52;;;;;;;36.63;14.57;;;9.60;99.90;;;;;;4970749;28;20461;-46
2024/03/09 12:58:24;;;;;;;23.30;15.70;;;9.70;99.90;;;;;;4956453;28;20465;-48
2024/03/09 13:00:54;;;;;;;20.40;12.17;;;9.90;99.90;;;;;;4960978;28;20376;-44
2024/03/09 13:03:24;;;;;;;25.73;12.80;;;10.10;99.80;;;;;;4957744;28;20491;-45
2024/03/09 13:05:53;;;;;;;21.10;12.20;;;10.10;99.30;;;;;;4966538;28;20848;-46
2024/03/09 13:08:26;;;;;;;18.97;12.93;;;10.30;98.80;;;;;;4938164;28;21453;-49
2024/03/09 13:10:55;;;;;;;21.63;12.37;;;10.30;98.40;;;;;;4954399;28;20798;-48
2024/03/09 13:13:24;;;;;;;21.30;11.87;;;10.30;98.50;;;;;;4955118;28;20438;-48